Terminal Aerodrome Forecast
Issued by NWS

Home | Current Version | Previous Version | Text Only | Print | Product List | Glossary On
Versions: 1 2 3 4 5 6 7 8 9 10 11 12 13 14 15 16 17
533
FTUS43 KEAX 121603 AAB
TAFSTJ
TAF AMD
KSTJ 121603Z 1216/1312 35010KT P6SM SCT020 BKN035
     FM121800 36012G20KT P6SM SCT035
     FM122200 02008KT P6SM SCT100=

USA.gov is the U.S. government's official web portal to all federal, state and local government web resources and services.